sensor_id;sensor_type;location;lat;lon;timestamp;P1;durP1;ratioP1;P2;durP2;ratioP2
64291;SDS011;50628;51.008;13.658;2023-05-16T00:02:37;10.97;;;7.97;;
64291;SDS011;50628;51.008;13.658;2023-05-16T00:07:40;9.83;;;8.03;;
64291;SDS011;50628;51.008;13.658;2023-05-16T00:12:45;8.47;;;7.50;;
64291;SDS011;50628;51.008;13.658;2023-05-16T00:17:47;11.90;;;7.67;;
64291;SDS011;50628;51.008;13.658;2023-05-16T00:22:49;10.50;;;7.37;;
64291;SDS011;50628;51.008;13.658;2023-05-16T00:27:52;8.10;;;6.97;;
64291;SDS011;50628;51.008;13.658;2023-05-16T00:32:54;10.50;;;8.10;;
64291;SDS011;50628;51.008;13.658;2023-05-16T00:37:57;9.57;;;7.13;;
64291;SDS011;50628;51.008;13.658;2023-05-16T00:43:00;9.23;;;7.10;;
64291;SDS011;50628;51.008;13.658;2023-05-16T00:48:02;8.17;;;7.37;;
64291;SDS011;50628;51.008;13.658;2023-05-16T00:53:04;8.50;;;6.73;;
64291;SDS011;50628;51.008;13.658;2023-05-16T00:58:08;9.00;;;6.83;;
64291;SDS011;50628;51.008;13.658;2023-05-16T01:03:11;8.37;;;7.47;;
64291;SDS011;50628;51.008;13.658;2023-05-16T01:08:13;7.53;;;6.70;;
64291;SDS011;50628;51.008;13.658;2023-05-16T01:13:20;8.07;;;7.27;;
64291;SDS011;50628;51.008;13.658;2023-05-16T01:18:28;7.80;;;7.00;;
64291;SDS011;50628;51.008;13.658;2023-05-16T01:23:45;9.17;;;7.43;;
64291;SDS011;50628;51.008;13.658;2023-05-16T01:28:53;9.77;;;8.30;;
64291;SDS011;50628;51.008;13.658;2023-05-16T01:33:55;9.73;;;7.80;;
64291;SDS011;50628;51.008;13.658;2023-05-16T01:39:01;8.97;;;8.17;;
64291;SDS011;50628;51.008;13.658;2023-05-16T01:44:13;13.57;;;8.17;;
64291;SDS011;50628;51.008;13.658;2023-05-16T01:49:20;12.60;;;9.10;;
64291;SDS011;50628;51.008;13.658;2023-05-16T01:54:31;15.17;;;10.40;;
64291;SDS011;50628;51.008;13.658;2023-05-16T01:59:36;10.43;;;9.33;;
64291;SDS011;50628;51.008;13.658;2023-05-16T02:04:39;10.83;;;8.60;;
64291;SDS011;50628;51.008;13.658;2023-05-16T02:09:41;10.33;;;9.23;;
64291;SDS011;50628;51.008;13.658;2023-05-16T02:14:44;10.33;;;9.20;;
64291;SDS011;50628;51.008;13.658;2023-05-16T02:19:46;10.20;;;9.20;;
64291;SDS011;50628;51.008;13.658;2023-05-16T02:24:48;10.20;;;9.27;;
64291;SDS011;50628;51.008;13.658;2023-05-16T02:29:51;12.00;;;10.77;;
64291;SDS011;50628;51.008;13.658;2023-05-16T02:34:53;10.70;;;9.20;;
64291;SDS011;50628;51.008;13.658;2023-05-16T02:39:55;14.43;;;10.37;;
64291;SDS011;50628;51.008;13.658;2023-05-16T02:44:58;11.03;;;9.90;;
64291;SDS011;50628;51.008;13.658;2023-05-16T02:50:00;12.80;;;10.33;;
64291;SDS011;50628;51.008;13.658;2023-05-16T02:55:03;13.70;;;10.53;;
64291;SDS011;50628;51.008;13.658;2023-05-16T03:00:09;13.17;;;11.83;;
64291;SDS011;50628;51.008;13.658;2023-05-16T03:05:12;14.27;;;12.47;;
64291;SDS011;50628;51.008;13.658;2023-05-16T03:10:14;14.00;;;11.70;;
64291;SDS011;50628;51.008;13.658;2023-05-16T03:15:17;13.03;;;11.73;;
64291;SDS011;50628;51.008;13.658;2023-05-16T03:20:19;13.67;;;11.87;;
64291;SDS011;50628;51.008;13.658;2023-05-16T03:25:21;14.90;;;12.10;;
64291;SDS011;50628;51.008;13.658;2023-05-16T03:30:25;14.30;;;12.67;;
64291;SDS011;50628;51.008;13.658;2023-05-16T03:35:27;14.30;;;12.80;;
64291;SDS011;50628;51.008;13.658;2023-05-16T03:40:29;13.17;;;11.77;;
64291;SDS011;50628;51.008;13.658;2023-05-16T03:45:32;15.10;;;12.63;;
64291;SDS011;50628;51.008;13.658;2023-05-16T03:50:34;17.07;;;12.70;;
64291;SDS011;50628;51.008;13.658;2023-05-16T03:55:36;15.67;;;12.87;;
64291;SDS011;50628;51.008;13.658;2023-05-16T04:00:40;13.80;;;12.40;;
64291;SDS011;50628;51.008;13.658;2023-05-16T04:05:41;13.87;;;12.23;;
64291;SDS011;50628;51.008;13.658;2023-05-16T04:10:44;26.50;;;13.23;;
64291;SDS011;50628;51.008;13.658;2023-05-16T04:15:47;14.00;;;12.50;;
64291;SDS011;50628;51.008;13.658;2023-05-16T04:20:49;14.90;;;12.23;;
64291;SDS011;50628;51.008;13.658;2023-05-16T04:25:51;15.10;;;11.97;;
64291;SDS011;50628;51.008;13.658;2023-05-16T04:30:54;13.43;;;12.03;;
64291;SDS011;50628;51.008;13.658;2023-05-16T04:35:56;13.30;;;11.77;;
64291;SDS011;50628;51.008;13.658;2023-05-16T04:40:58;12.57;;;11.37;;
64291;SDS011;50628;51.008;13.658;2023-05-16T04:46:02;18.33;;;11.40;;
64291;SDS011;50628;51.008;13.658;2023-05-16T04:51:04;19.67;;;12.67;;
64291;SDS011;50628;51.008;13.658;2023-05-16T04:56:06;14.73;;;11.80;;
64291;SDS011;50628;51.008;13.658;2023-05-16T05:01:09;13.17;;;11.77;;
64291;SDS011;50628;51.008;13.658;2023-05-16T05:06:11;16.73;;;11.97;;
64291;SDS011;50628;51.008;13.658;2023-05-16T05:11:13;19.00;;;13.50;;
64291;SDS011;50628;51.008;13.658;2023-05-16T05:16:16;15.93;;;12.10;;
64291;SDS011;50628;51.008;13.658;2023-05-16T05:21:18;15.10;;;13.60;;
64291;SDS011;50628;51.008;13.658;2023-05-16T05:26:23;13.77;;;12.13;;
64291;SDS011;50628;51.008;13.658;2023-05-16T05:31:26;23.13;;;14.10;;
64291;SDS011;50628;51.008;13.658;2023-05-16T05:36:28;18.60;;;14.60;;
64291;SDS011;50628;51.008;13.658;2023-05-16T05:41:30;19.47;;;13.90;;
64291;SDS011;50628;51.008;13.658;2023-05-16T05:46:34;19.10;;;15.33;;
64291;SDS011;50628;51.008;13.658;2023-05-16T05:51:36;18.43;;;16.47;;
64291;SDS011;50628;51.008;13.658;2023-05-16T05:56:38;25.07;;;21.17;;
64291;SDS011;50628;51.008;13.658;2023-05-16T06:01:41;25.57;;;18.90;;
64291;SDS011;50628;51.008;13.658;2023-05-16T06:06:44;29.23;;;21.17;;
64291;SDS011;50628;51.008;13.658;2023-05-16T06:11:46;27.20;;;19.90;;
64291;SDS011;50628;51.008;13.658;2023-05-16T06:16:49;24.87;;;22.30;;
64291;SDS011;50628;51.008;13.658;2023-05-16T06:21:51;28.30;;;24.50;;
64291;SDS011;50628;51.008;13.658;2023-05-16T06:26:52;31.47;;;25.33;;
64291;SDS011;50628;51.008;13.658;2023-05-16T06:31:56;32.60;;;26.97;;
64291;SDS011;50628;51.008;13.658;2023-05-16T06:36:58;29.13;;;26.07;;
64291;SDS011;50628;51.008;13.658;2023-05-16T06:42:02;35.33;;;27.37;;
64291;SDS011;50628;51.008;13.658;2023-05-16T06:47:07;33.17;;;29.57;;
64291;SDS011;50628;51.008;13.658;2023-05-16T06:52:09;36.23;;;31.10;;
64291;SDS011;50628;51.008;13.658;2023-05-16T06:57:11;37.23;;;33.17;;
64291;SDS011;50628;51.008;13.658;2023-05-16T07:02:14;39.70;;;32.80;;
64291;SDS011;50628;51.008;13.658;2023-05-16T07:07:16;38.43;;;31.60;;
64291;SDS011;50628;51.008;13.658;2023-05-16T07:12:18;29.00;;;25.93;;
64291;SDS011;50628;51.008;13.658;2023-05-16T07:17:21;37.73;;;30.07;;
64291;SDS011;50628;51.008;13.658;2023-05-16T07:22:23;30.47;;;26.33;;
64291;SDS011;50628;51.008;13.658;2023-05-16T07:27:25;28.27;;;25.30;;
64291;SDS011;50628;51.008;13.658;2023-05-16T07:32:28;25.67;;;22.87;;
64291;SDS011;50628;51.008;13.658;2023-05-16T07:37:30;21.30;;;17.87;;
64291;SDS011;50628;51.008;13.658;2023-05-16T07:42:32;19.07;;;17.07;;
64291;SDS011;50628;51.008;13.658;2023-05-16T07:47:36;18.30;;;14.53;;
64291;SDS011;50628;51.008;13.658;2023-05-16T07:52:37;16.10;;;13.23;;
64291;SDS011;50628;51.008;13.658;2023-05-16T07:57:39;13.30;;;11.80;;
64291;SDS011;50628;51.008;13.658;2023-05-16T08:02:44;12.77;;;11.33;;
64291;SDS011;50628;51.008;13.658;2023-05-16T08:07:46;12.17;;;10.90;;
64291;SDS011;50628;51.008;13.658;2023-05-16T08:12:48;14.40;;;10.50;;
64291;SDS011;50628;51.008;13.658;2023-05-16T08:17:53;14.20;;;9.90;;
64291;SDS011;50628;51.008;13.658;2023-05-16T08:22:57;11.43;;;9.23;;
64291;SDS011;50628;51.008;13.658;2023-05-16T08:27:59;11.67;;;9.80;;
64291;SDS011;50628;51.008;13.658;2023-05-16T08:33:04;14.77;;;10.70;;
64291;SDS011;50628;51.008;13.658;2023-05-16T08:38:06;11.83;;;9.33;;
64291;SDS011;50628;51.008;13.658;2023-05-16T08:43:08;17.10;;;10.33;;
64291;SDS011;50628;51.008;13.658;2023-05-16T08:48:11;14.73;;;9.90;;
64291;SDS011;50628;51.008;13.658;2023-05-16T08:53:16;12.17;;;9.63;;
64291;SDS011;50628;51.008;13.658;2023-05-16T08:58:22;11.10;;;9.23;;
64291;SDS011;50628;51.008;13.658;2023-05-16T09:03:27;11.27;;;9.60;;
64291;SDS011;50628;51.008;13.658;2023-05-16T09:08:29;9.47;;;8.00;;
64291;SDS011;50628;51.008;13.658;2023-05-16T09:13:32;11.63;;;8.77;;
64291;SDS011;50628;51.008;13.658;2023-05-16T09:18:35;12.17;;;8.37;;
64291;SDS011;50628;51.008;13.658;2023-05-16T09:23:37;11.70;;;8.90;;
64291;SDS011;50628;51.008;13.658;2023-05-16T09:28:39;11.70;;;9.10;;
64291;SDS011;50628;51.008;13.658;2023-05-16T09:33:43;10.53;;;8.37;;
64291;SDS011;50628;51.008;13.658;2023-05-16T09:38:46;12.07;;;8.73;;
64291;SDS011;50628;51.008;13.658;2023-05-16T09:43:48;11.60;;;9.00;;
64291;SDS011;50628;51.008;13.658;2023-05-16T09:48:51;13.03;;;8.50;;
64291;SDS011;50628;51.008;13.658;2023-05-16T09:53:53;9.27;;;8.20;;
64291;SDS011;50628;51.008;13.658;2023-05-16T09:58:55;9.57;;;8.17;;
64291;SDS011;50628;51.008;13.658;2023-05-16T10:03:58;10.43;;;8.17;;
64291;SDS011;50628;51.008;13.658;2023-05-16T10:09:00;11.43;;;7.80;;
64291;SDS011;50628;51.008;13.658;2023-05-16T10:14:03;19.10;;;8.60;;
64291;SDS011;50628;51.008;13.658;2023-05-16T10:19:07;9.07;;;7.37;;
64291;SDS011;50628;51.008;13.658;2023-05-16T10:24:09;14.60;;;8.33;;
64291;SDS011;50628;51.008;13.658;2023-05-16T10:29:15;10.83;;;7.03;;
64291;SDS011;50628;51.008;13.658;2023-05-16T10:34:19;9.20;;;7.00;;
64291;SDS011;50628;51.008;13.658;2023-05-16T10:39:21;7.67;;;6.23;;
64291;SDS011;50628;51.008;13.658;2023-05-16T10:44:23;10.90;;;6.70;;
64291;SDS011;50628;51.008;13.658;2023-05-16T10:49:27;9.87;;;8.83;;
64291;SDS011;50628;51.008;13.658;2023-05-16T10:54:34;13.27;;;8.20;;
64291;SDS011;50628;51.008;13.658;2023-05-16T10:59:40;11.83;;;8.90;;
64291;SDS011;50628;51.008;13.658;2023-05-16T11:04:45;9.50;;;6.77;;
64291;SDS011;50628;51.008;13.658;2023-05-16T11:10:03;19.63;;;6.97;;
64291;SDS011;50628;51.008;13.658;2023-05-16T11:15:16;8.40;;;7.23;;
64291;SDS011;50628;51.008;13.658;2023-05-16T11:20:29;8.27;;;5.87;;
64291;SDS011;50628;51.008;13.658;2023-05-16T11:25:35;9.57;;;6.63;;
64291;SDS011;50628;51.008;13.658;2023-05-16T11:30:41;12.27;;;6.20;;
64291;SDS011;50628;51.008;13.658;2023-05-16T11:41:04;6.17;;;4.37;;
64291;SDS011;50628;51.008;13.658;2023-05-16T11:46:09;6.63;;;4.73;;
64291;SDS011;50628;51.008;13.658;2023-05-16T11:51:13;13.93;;;4.50;;
64291;SDS011;50628;51.008;13.658;2023-05-16T11:56:18;5.07;;;4.57;;
64291;SDS011;50628;51.008;13.658;2023-05-16T12:01:22;10.07;;;5.07;;
64291;SDS011;50628;51.008;13.658;2023-05-16T12:06:25;10.60;;;5.83;;
64291;SDS011;50628;51.008;13.658;2023-05-16T12:11:30;4.53;;;4.13;;
64291;SDS011;50628;51.008;13.658;2023-05-16T12:16:32;6.27;;;3.50;;
64291;SDS011;50628;51.008;13.658;2023-05-16T12:21:37;7.30;;;3.83;;
64291;SDS011;50628;51.008;13.658;2023-05-16T12:26:40;6.23;;;3.50;;
64291;SDS011;50628;51.008;13.658;2023-05-16T12:31:42;6.23;;;3.77;;
64291;SDS011;50628;51.008;13.658;2023-05-16T12:36:46;7.80;;;5.47;;
64291;SDS011;50628;51.008;13.658;2023-05-16T12:41:52;8.17;;;4.37;;
64291;SDS011;50628;51.008;13.658;2023-05-16T12:46:54;6.67;;;3.63;;
64291;SDS011;50628;51.008;13.658;2023-05-16T12:51:58;11.73;;;4.20;;
64291;SDS011;50628;51.008;13.658;2023-05-16T12:57:04;11.17;;;4.60;;
64291;SDS011;50628;51.008;13.658;2023-05-16T13:02:09;21.00;;;4.83;;
64291;SDS011;50628;51.008;13.658;2023-05-16T13:07:12;6.03;;;3.30;;
64291;SDS011;50628;51.008;13.658;2023-05-16T13:12:14;5.13;;;3.07;;
64291;SDS011;50628;51.008;13.658;2023-05-16T13:17:16;6.67;;;3.33;;
64291;SDS011;50628;51.008;13.658;2023-05-16T13:22:19;5.93;;;3.80;;
64291;SDS011;50628;51.008;13.658;2023-05-16T13:27:21;12.87;;;9.73;;
64291;SDS011;50628;51.008;13.658;2023-05-16T13:32:23;6.67;;;3.00;;
64291;SDS011;50628;51.008;13.658;2023-05-16T13:37:26;3.43;;;3.10;;
64291;SDS011;50628;51.008;13.658;2023-05-16T13:42:28;12.40;;;4.57;;
64291;SDS011;50628;51.008;13.658;2023-05-16T13:47:30;8.53;;;4.93;;
64291;SDS011;50628;51.008;13.658;2023-05-16T13:52:34;8.97;;;3.70;;
64291;SDS011;50628;51.008;13.658;2023-05-16T14:02:43;7.30;;;2.63;;
64291;SDS011;50628;51.008;13.658;2023-05-16T14:07:46;7.43;;;2.43;;
64291;SDS011;50628;51.008;13.658;2023-05-16T14:12:48;13.70;;;3.17;;
64291;SDS011;50628;51.008;13.658;2023-05-16T14:17:51;6.73;;;2.30;;
64291;SDS011;50628;51.008;13.658;2023-05-16T14:22:54;5.60;;;2.30;;
64291;SDS011;50628;51.008;13.658;2023-05-16T14:27:56;6.20;;;2.30;;
64291;SDS011;50628;51.008;13.658;2023-05-16T14:32:58;6.80;;;2.43;;
64291;SDS011;50628;51.008;13.658;2023-05-16T14:38:01;11.73;;;2.30;;
64291;SDS011;50628;51.008;13.658;2023-05-16T14:43:03;10.23;;;2.80;;
64291;SDS011;50628;51.008;13.658;2023-05-16T14:48:05;10.80;;;2.80;;
64291;SDS011;50628;51.008;13.658;2023-05-16T14:53:09;11.63;;;2.80;;
64291;SDS011;50628;51.008;13.658;2023-05-16T14:58:11;7.43;;;1.87;;
64291;SDS011;50628;51.008;13.658;2023-05-16T15:03:14;11.60;;;2.70;;
64291;SDS011;50628;51.008;13.658;2023-05-16T15:08:18;5.17;;;1.77;;
64291;SDS011;50628;51.008;13.658;2023-05-16T15:13:20;11.83;;;2.20;;
64291;SDS011;50628;51.008;13.658;2023-05-16T15:18:21;9.60;;;2.33;;
64291;SDS011;50628;51.008;13.658;2023-05-16T15:23:25;7.60;;;2.27;;
64291;SDS011;50628;51.008;13.658;2023-05-16T15:28:27;5.63;;;1.50;;
64291;SDS011;50628;51.008;13.658;2023-05-16T15:33:29;9.70;;;2.47;;
64291;SDS011;50628;51.008;13.658;2023-05-16T15:38:32;6.40;;;1.80;;
64291;SDS011;50628;51.008;13.658;2023-05-16T15:43:35;5.77;;;1.90;;
64291;SDS011;50628;51.008;13.658;2023-05-16T15:48:37;9.87;;;2.17;;
64291;SDS011;50628;51.008;13.658;2023-05-16T15:53:43;12.27;;;2.10;;
64291;SDS011;50628;51.008;13.658;2023-05-16T15:58:45;8.23;;;1.40;;
64291;SDS011;50628;51.008;13.658;2023-05-16T16:03:47;7.87;;;1.43;;
64291;SDS011;50628;51.008;13.658;2023-05-16T16:08:50;13.33;;;2.53;;
64291;SDS011;50628;51.008;13.658;2023-05-16T16:13:52;6.77;;;1.47;;
64291;SDS011;50628;51.008;13.658;2023-05-16T16:18:54;9.53;;;1.70;;
64291;SDS011;50628;51.008;13.658;2023-05-16T16:23:58;9.20;;;1.40;;
64291;SDS011;50628;51.008;13.658;2023-05-16T16:29:00;6.50;;;1.70;;
64291;SDS011;50628;51.008;13.658;2023-05-16T16:34:02;4.50;;;1.53;;
64291;SDS011;50628;51.008;13.658;2023-05-16T16:39:05;6.00;;;1.10;;
64291;SDS011;50628;51.008;13.658;2023-05-16T16:44:09;10.40;;;1.70;;
64291;SDS011;50628;51.008;13.658;2023-05-16T16:49:11;9.13;;;1.60;;
64291;SDS011;50628;51.008;13.658;2023-05-16T16:54:14;11.53;;;1.90;;
64291;SDS011;50628;51.008;13.658;2023-05-16T16:59:16;9.13;;;1.57;;
64291;SDS011;50628;51.008;13.658;2023-05-16T17:04:18;9.13;;;1.50;;
64291;SDS011;50628;51.008;13.658;2023-05-16T17:09:22;8.70;;;1.47;;
64291;SDS011;50628;51.008;13.658;2023-05-16T17:14:24;6.90;;;1.77;;
64291;SDS011;50628;51.008;13.658;2023-05-16T17:19:26;9.17;;;2.90;;
64291;SDS011;50628;51.008;13.658;2023-05-16T17:24:29;9.33;;;1.90;;
64291;SDS011;50628;51.008;13.658;2023-05-16T17:29:31;14.30;;;4.67;;
64291;SDS011;50628;51.008;13.658;2023-05-16T17:34:33;9.00;;;3.10;;
64291;SDS011;50628;51.008;13.658;2023-05-16T17:39:37;11.20;;;1.97;;
64291;SDS011;50628;51.008;13.658;2023-05-16T17:44:38;11.73;;;2.07;;
64291;SDS011;50628;51.008;13.658;2023-05-16T17:49:41;11.80;;;2.20;;
64291;SDS011;50628;51.008;13.658;2023-05-16T17:54:44;9.37;;;1.90;;
64291;SDS011;50628;51.008;13.658;2023-05-16T17:59:46;8.93;;;1.70;;
64291;SDS011;50628;51.008;13.658;2023-05-16T18:04:48;5.73;;;1.30;;
64291;SDS011;50628;51.008;13.658;2023-05-16T18:09:52;7.97;;;1.60;;
64291;SDS011;50628;51.008;13.658;2023-05-16T18:14:54;9.50;;;1.30;;
64291;SDS011;50628;51.008;13.658;2023-05-16T18:19:56;9.23;;;1.80;;
64291;SDS011;50628;51.008;13.658;2023-05-16T18:25:00;8.03;;;1.57;;
64291;SDS011;50628;51.008;13.658;2023-05-16T18:30:02;13.53;;;1.40;;
64291;SDS011;50628;51.008;13.658;2023-05-16T18:35:06;9.00;;;1.70;;
64291;SDS011;50628;51.008;13.658;2023-05-16T18:40:10;8.43;;;1.40;;
64291;SDS011;50628;51.008;13.658;2023-05-16T18:45:12;8.97;;;1.73;;
64291;SDS011;50628;51.008;13.658;2023-05-16T18:50:14;8.90;;;1.47;;
64291;SDS011;50628;51.008;13.658;2023-05-16T18:55:18;7.33;;;1.40;;
64291;SDS011;50628;51.008;13.658;2023-05-16T19:00:20;10.43;;;1.80;;
64291;SDS011;50628;51.008;13.658;2023-05-16T19:05:22;5.63;;;1.50;;
64291;SDS011;50628;51.008;13.658;2023-05-16T19:10:25;15.03;;;3.60;;
64291;SDS011;50628;51.008;13.658;2023-05-16T19:15:28;8.63;;;2.77;;
64291;SDS011;50628;51.008;13.658;2023-05-16T19:20:29;8.77;;;3.17;;
64291;SDS011;50628;51.008;13.658;2023-05-16T19:25:34;9.13;;;2.07;;
64291;SDS011;50628;51.008;13.658;2023-05-16T19:30:36;11.07;;;2.47;;
64291;SDS011;50628;51.008;13.658;2023-05-16T19:35:38;7.40;;;1.27;;
64291;SDS011;50628;51.008;13.658;2023-05-16T19:40:41;7.73;;;2.77;;
64291;SDS011;50628;51.008;13.658;2023-05-16T19:45:43;17.13;;;3.63;;
64291;SDS011;50628;51.008;13.658;2023-05-16T19:50:45;6.20;;;1.70;;
64291;SDS011;50628;51.008;13.658;2023-05-16T19:55:49;14.40;;;2.13;;
64291;SDS011;50628;51.008;13.658;2023-05-16T20:00:51;8.33;;;1.70;;
64291;SDS011;50628;51.008;13.658;2023-05-16T20:05:53;6.50;;;2.67;;
64291;SDS011;50628;51.008;13.658;2023-05-16T20:10:57;8.30;;;2.30;;
64291;SDS011;50628;51.008;13.658;2023-05-16T20:15:59;11.30;;;2.20;;
64291;SDS011;50628;51.008;13.658;2023-05-16T20:21:02;4.13;;;1.70;;
64291;SDS011;50628;51.008;13.658;2023-05-16T20:26:06;7.87;;;2.10;;
64291;SDS011;50628;51.008;13.658;2023-05-16T20:31:08;6.10;;;1.80;;
64291;SDS011;50628;51.008;13.658;2023-05-16T20:36:09;7.77;;;1.93;;
64291;SDS011;50628;51.008;13.658;2023-05-16T20:41:13;9.47;;;1.80;;
64291;SDS011;50628;51.008;13.658;2023-05-16T20:46:15;6.33;;;1.80;;
64291;SDS011;50628;51.008;13.658;2023-05-16T20:51:17;9.13;;;1.70;;
64291;SDS011;50628;51.008;13.658;2023-05-16T20:56:20;6.07;;;1.10;;
64291;SDS011;50628;51.008;13.658;2023-05-16T21:01:22;5.90;;;1.50;;
64291;SDS011;50628;51.008;13.658;2023-05-16T21:06:24;4.73;;;1.27;;
64291;SDS011;50628;51.008;13.658;2023-05-16T21:11:27;8.93;;;1.27;;
64291;SDS011;50628;51.008;13.658;2023-05-16T21:16:31;4.17;;;1.00;;
64291;SDS011;50628;51.008;13.658;2023-05-16T21:21:33;5.97;;;1.23;;
64291;SDS011;50628;51.008;13.658;2023-05-16T21:26:37;9.37;;;1.00;;
64291;SDS011;50628;51.008;13.658;2023-05-16T21:31:38;4.17;;;0.80;;
64291;SDS011;50628;51.008;13.658;2023-05-16T21:36:40;8.50;;;1.33;;
64291;SDS011;50628;51.008;13.658;2023-05-16T21:41:43;3.13;;;0.77;;
64291;SDS011;50628;51.008;13.658;2023-05-16T21:46:45;3.00;;;0.70;;
64291;SDS011;50628;51.008;13.658;2023-05-16T21:51:47;3.77;;;0.60;;
64291;SDS011;50628;51.008;13.658;2023-05-16T21:56:50;2.77;;;0.83;;
64291;SDS011;50628;51.008;13.658;2023-05-16T22:01:52;3.63;;;0.90;;
64291;SDS011;50628;51.008;13.658;2023-05-16T22:06:54;3.47;;;0.83;;
64291;SDS011;50628;51.008;13.658;2023-05-16T22:11:57;5.67;;;0.93;;
64291;SDS011;50628;51.008;13.658;2023-05-16T22:16:59;6.40;;;0.80;;
64291;SDS011;50628;51.008;13.658;2023-05-16T22:22:01;2.53;;;0.83;;
64291;SDS011;50628;51.008;13.658;2023-05-16T22:27:04;4.80;;;0.60;;
64291;SDS011;50628;51.008;13.658;2023-05-16T22:32:07;2.93;;;0.60;;
64291;SDS011;50628;51.008;13.658;2023-05-16T22:37:10;2.83;;;0.70;;
64291;SDS011;50628;51.008;13.658;2023-05-16T22:42:13;4.30;;;1.00;;
64291;SDS011;50628;51.008;13.658;2023-05-16T22:47:15;3.87;;;0.90;;
64291;SDS011;50628;51.008;13.658;2023-05-16T22:52:17;5.30;;;0.80;;
64291;SDS011;50628;51.008;13.658;2023-05-16T22:57:22;7.17;;;0.80;;
64291;SDS011;50628;51.008;13.658;2023-05-16T23:02:24;3.73;;;0.83;;
64291;SDS011;50628;51.008;13.658;2023-05-16T23:07:26;3.67;;;0.83;;
64291;SDS011;50628;51.008;13.658;2023-05-16T23:12:30;3.53;;;0.60;;
64291;SDS011;50628;51.008;13.658;2023-05-16T23:17:32;4.97;;;0.90;;
64291;SDS011;50628;51.008;13.658;2023-05-16T23:22:34;4.50;;;0.60;;
64291;SDS011;50628;51.008;13.658;2023-05-16T23:27:37;5.03;;;0.70;;
64291;SDS011;50628;51.008;13.658;2023-05-16T23:32:39;7.57;;;1.13;;
64291;SDS011;50628;51.008;13.658;2023-05-16T23:37:41;2.33;;;0.83;;
64291;SDS011;50628;51.008;13.658;2023-05-16T23:42:44;5.67;;;1.10;;
64291;SDS011;50628;51.008;13.658;2023-05-16T23:47:46;3.30;;;0.87;;
64291;SDS011;50628;51.008;13.658;2023-05-16T23:52:48;4.30;;;0.83;;
64291;SDS011;50628;51.008;13.658;2023-05-16T23:57:51;3.43;;;0.83;;
